Time;durP1;ratioP1;P1;durP2;ratioP2;P2;SDS_P1;SDS_P2;PMS_P1;PMS_P2;Temp;Humidity;BMP_temperature;BMP_pressure;BME280_temperature;BME280_humidity;BME280_pressure;Samples;Min_cycle;Max_cycle;Signal;HPM_P1;HPM_P2
2022/07/20 00:00:44;;;;;;;3.15;1.63;;;;;;;20.68;48.93;100634.31;5026906;28;20037;-27
2022/07/20 00:03:11;;;;;;;3.92;1.80;;;;;;;20.29;49.63;100613.16;5026798;28;20033;-28
2022/07/20 00:05:38;;;;;;;5.37;1.73;;;;;;;20.18;50.28;100630.47;5025796;28;20030;-33
2022/07/20 00:08:04;;;;;;;3.28;1.65;;;;;;;20.09;50.52;100623.97;5025393;28;20337;-27
2022/07/20 00:13:15;;;;;;;4.57;2.15;;;;;;;20.53;51.15;100604.47;5027150;28;20624;-33
2022/07/20 00:15:41;;;;;;;8.40;2.20;;;;;;;22.21;47.48;100626.66;5025010;28;20049;-30
2022/07/20 00:18:07;;;;;;;3.65;1.73;;;;;;;22.32;47.28;100630.16;5025147;28;20051;-28
2022/07/20 00:20:33;;;;;;;4.05;1.65;;;;;;;21.39;47.51;100627.06;5026733;28;20460;-27
2022/07/20 00:22:58;;;;;;;4.28;1.50;;;;;;;20.61;49.16;100618.31;5025681;28;20497;-27
2022/07/20 00:25:25;;;;;;;2.95;1.60;;;;;;;20.52;50.27;100617.22;5026704;28;20033;-28
2022/07/20 00:27:51;;;;;;;5.10;1.90;;;;;;;20.82;49.88;100624.53;5025062;28;20036;-27
2022/07/20 00:30:16;;;;;;;2.78;1.67;;;;;;;21.32;48.97;100613.00;5026427;28;20417;-27
2022/07/20 00:32:42;;;;;;;6.68;1.85;;;;;;;20.92;49.74;100618.25;5027283;28;20065;-29
2022/07/20 00:35:11;;;;;;;6.70;1.70;;;;;;;20.80;50.10;100615.88;5026557;28;20410;-30
2022/07/20 00:37:37;;;;;;;3.42;1.90;;;;;;;20.71;50.49;100622.91;5025350;28;20033;-27
2022/07/20 00:40:04;;;;;;;3.97;1.60;;;;;;;20.99;49.12;100610.66;5025113;28;20470;-27
2022/07/20 00:42:30;;;;;;;3.58;1.55;;;;;;;21.13;48.70;100627.19;5025088;28;20028;-31
2022/07/20 00:44:56;;;;;;;4.07;1.80;;;;;;;21.09;50.12;100603.59;5026361;28;20033;-29
2022/07/20 00:47:21;;;;;;;1.92;1.60;;;;;;;22.21;47.40;100613.91;5026427;28;20087;-27
2022/07/20 00:49:47;;;;;;;3.17;1.83;;;;;;;21.17;48.00;100611.19;5029930;28;20412;-35
2022/07/20 00:52:13;;;;;;;3.17;1.65;;;;;;;20.42;51.75;100615.31;5030131;28;20033;-27
2022/07/20 00:54:39;;;;;;;3.13;1.60;;;;;;;21.09;49.69;100617.97;5030299;28;20029;-28
2022/07/20 00:57:05;;;;;;;6.15;2.05;;;;;;;19.72;51.93;100609.53;5028656;28;20026;-28
2022/07/20 00:59:30;;;;;;;2.55;1.58;;;;;;;20.44;51.97;100615.06;5029851;28;20034;-28
2022/07/20 01:01:56;;;;;;;3.28;1.80;;;;;;;20.17;51.23;100607.19;5029794;28;20123;-29
2022/07/20 01:04:22;;;;;;;3.38;1.73;;;;;;;19.71;51.89;100596.28;5029984;28;20025;-28
2022/07/20 01:06:48;;;;;;;4.20;1.90;;;;;;;19.41;53.04;100589.66;5028606;28;20033;-30
2022/07/20 01:09:15;;;;;;;3.08;1.60;;;;;;;20.20;52.57;100596.63;5028382;28;20105;-27
2022/07/20 01:11:41;;;;;;;4.80;2.10;;;;;;;20.89;50.73;100582.78;5028324;28;20476;-28
2022/07/20 01:14:07;;;;;;;2.65;1.73;;;;;;;20.47;51.44;100606.38;5029243;28;20526;-28
2022/07/20 01:16:34;;;;;;;3.47;1.67;;;;;;;21.01;50.41;100604.97;5028064;28;20140;-28
2022/07/20 01:19:00;;;;;;;2.63;1.70;;;;;;;20.99;50.04;100585.47;5028310;28;20084;-27
2022/07/20 01:21:26;;;;;;;5.50;2.20;;;;;;;21.33;49.11;100606.47;5028162;28;20449;-27
2022/07/20 01:23:52;;;;;;;3.80;1.70;;;;;;;20.32;51.43;100603.69;5028076;28;20551;-29
2022/07/20 01:26:19;;;;;;;4.20;1.60;;;;;;;19.74;52.91;100598.47;5029417;28;20091;-27
2022/07/20 01:28:44;;;;;;;2.38;1.80;;;;;;;20.07;52.77;100587.13;5029641;28;20026;-28
2022/07/20 01:31:10;;;;;;;2.60;1.58;;;;;;;19.48;54.05;100592.94;5029622;28;20025;-28
2022/07/20 01:33:35;;;;;;;2.60;1.67;;;;;;;19.53;54.99;100587.53;5029783;28;20041;-28
2022/07/20 01:36:01;;;;;;;3.58;1.65;;;;;;;21.14;50.55;100587.31;5029136;28;20030;-31
2022/07/20 01:38:27;;;;;;;3.83;1.70;;;;;;;21.35;49.81;100588.03;5027753;28;20039;-29
2022/07/20 01:40:52;;;;;;;2.78;1.65;;;;;;;20.52;50.45;100559.50;5029085;28;20571;-27
2022/07/20 01:43:18;;;;;;;2.83;1.65;;;;;;;20.01;53.00;100590.91;5027598;28;20033;-28
2022/07/20 01:45:44;;;;;;;5.70;1.70;;;;;;;19.84;52.92;100584.97;5028920;28;20424;-27
2022/07/20 01:48:09;;;;;;;2.45;1.70;;;;;;;19.60;53.91;100598.91;5029209;28;20504;-28
2022/07/20 01:50:37;;;;;;;6.55;1.90;;;;;;;19.16;55.60;100599.28;5029321;28;20091;-27
2022/07/20 01:53:03;;;;;;;5.18;1.90;;;;;;;18.36;57.27;100584.97;5029121;28;20036;-27
2022/07/20 01:55:28;;;;;;;6.15;2.00;;;;;;;18.05;58.63;100590.91;5027518;28;20128;-27
2022/07/20 01:57:54;;;;;;;2.63;1.70;;;;;;;17.37;60.05;100603.91;5028317;28;20479;-28
2022/07/20 02:00:19;;;;;;;3.08;1.83;;;;;;;17.17;60.88;100590.97;5028198;28;20029;-28
2022/07/20 02:02:45;;;;;;;3.65;1.85;;;;;;;17.54;60.25;100600.31;5028779;28;20033;-27
2022/07/20 02:05:11;;;;;;;3.60;2.00;;;;;;;18.06;58.69;100592.53;5027327;28;20056;-28
2022/07/20 02:07:37;;;;;;;5.10;2.10;;;;;;;19.01;56.29;100608.13;5028694;28;20103;-27
2022/07/20 02:10:05;;;;;;;3.05;2.10;;;;;;;18.68;57.40;100591.13;5028341;28;20037;-29
2022/07/20 02:12:31;;;;;;;4.25;1.90;;;;;;;19.25;55.82;100611.22;5027049;28;20044;-27
2022/07/20 02:14:57;;;;;;;3.60;1.83;;;;;;;19.62;54.50;100593.25;5028378;28;20033;-27
2022/07/20 02:17:22;;;;;;;6.30;2.30;;;;;;;18.29;56.82;100598.69;5028798;28;20041;-29
2022/07/20 02:19:47;;;;;;;5.75;2.20;;;;;;;17.89;59.67;100610.72;5028262;28;20040;-27
2022/07/20 02:22:13;;;;;;;3.65;2.20;;;;;;;17.84;58.84;100589.91;5028497;28;20124;-32
2022/07/20 02:24:38;;;;;;;5.53;2.40;;;;;;;17.72;60.18;100608.09;5028290;28;20504;-30
2022/07/20 02:27:04;;;;;;;6.70;2.10;;;;;;;18.23;59.00;100607.81;5028243;28;20468;-33
2022/07/20 02:29:29;;;;;;;5.82;2.30;;;;;;;17.91;59.94;100578.91;5028481;28;20108;-30
2022/07/20 02:31:55;;;;;;;3.75;2.08;;;;;;;19.41;55.62;100609.41;5028019;28;20029;-27
2022/07/20 02:34:20;;;;;;;4.60;2.40;;;;;;;19.06;56.92;100607.34;5026987;28;20120;-27
2022/07/20 02:36:46;;;;;;;11.60;2.70;;;;;;;19.09;57.29;100614.13;5028408;28;20444;-29
2022/07/20 02:39:11;;;;;;;5.25;2.28;;;;;;;18.95;58.00;100609.16;5028052;28;20029;-30
2022/07/20 02:41:37;;;;;;;5.90;2.60;;;;;;;18.53;58.34;100606.41;5027784;28;20048;-34
2022/07/20 02:44:02;;;;;;;9.07;2.70;;;;;;;18.25;59.54;100595.69;5028076;28;20401;-27
2022/07/20 02:46:28;;;;;;;4.47;2.80;;;;;;;18.07;60.97;100599.56;5027812;28;20739;-29
2022/07/20 02:48:53;;;;;;;4.15;2.50;;;;;;;18.70;58.84;100604.41;5028037;28;20076;-29
2022/07/20 02:51:19;;;;;;;6.72;2.97;;;;;;;18.20;59.79;100603.72;5026642;28;20026;-28
2022/07/20 02:53:44;;;;;;;7.13;3.00;;;;;;;17.80;61.41;100609.53;5027626;28;20123;-28
2022/07/20 02:56:10;;;;;;;5.20;2.78;;;;;;;19.77;57.35;100608.75;5027705;28;20026;-29
2022/07/20 02:58:37;;;;;;;5.35;2.60;;;;;;;19.94;54.89;100598.50;5027680;28;20025;-27
2022/07/20 03:01:02;;;;;;;4.20;2.63;;;;;;;19.45;56.27;100620.50;5026457;28;20030;-27
2022/07/20 03:03:28;;;;;;;7.30;3.08;;;;;;;18.85;57.42;100595.59;5026328;28;20539;-29
2022/07/20 03:05:53;;;;;;;4.90;2.60;;;;;;;18.67;58.27;100613.00;5027580;28;20033;-27
2022/07/20 03:08:19;;;;;;;5.53;2.90;;;;;;;19.53;56.18;100619.97;5027489;28;20048;-29
2022/07/20 03:10:44;;;;;;;7.53;2.83;;;;;;;19.71;54.83;100613.31;5027249;28;20029;-30
2022/07/20 03:13:10;;;;;;;3.72;2.67;;;;;;;18.85;56.58;100604.50;5027203;28;20555;-28
2022/07/20 03:15:35;;;;;;;8.63;3.80;;;;;;;18.16;59.13;100608.00;5027215;28;20728;-30
2022/07/20 03:18:01;;;;;;;10.70;3.20;;;;;;;18.25;59.87;100605.66;5027277;28;20044;-28
2022/07/20 03:20:28;;;;;;;10.75;3.47;;;;;;;18.99;57.82;100598.66;5027297;28;20131;-27
2022/07/20 03:22:55;;;;;;;5.32;2.92;;;;;;;19.51;55.53;100619.44;5026094;28;20029;-31
2022/07/20 03:25:21;;;;;;;8.90;3.25;;;;;;;18.27;58.08;100598.13;5025662;28;20132;-28
2022/07/20 03:27:47;;;;;;;13.77;4.07;;;;;;;17.72;60.31;100612.66;5027183;28;20029;-27
2022/07/20 03:30:13;;;;;;;10.77;3.65;;;;;;;17.42;61.60;100611.22;5027350;28;20432;-30
2022/07/20 03:32:39;;;;;;;12.10;3.20;;;;;;;17.93;60.54;100613.72;5025639;28;20735;-27
2022/07/20 03:35:05;;;;;;;9.85;4.13;;;;;;;18.62;58.29;100591.38;5027201;28;20072;-27
2022/07/20 03:37:31;;;;;;;11.25;3.55;;;;;;;18.27;58.71;100592.72;5025578;28;20064;-26
2022/07/20 03:39:56;;;;;;;12.35;3.50;;;;;;;17.91;60.48;100589.69;5027246;28;20061;-28
2022/07/20 03:42:22;;;;;;;12.73;3.83;;;;;;;18.10;60.17;100592.03;5027012;28;20021;-27
2022/07/20 03:44:47;;;;;;;17.52;4.20;;;;;;;18.23;59.85;100611.31;5027015;28;20033;-31
2022/07/20 03:47:13;;;;;;;44.33;6.78;;;;;;;18.46;59.37;100602.06;5027206;28;20029;-27
2022/07/20 03:49:38;;;;;;;42.13;7.28;;;;;;;18.84;57.94;100594.78;5027179;28;20129;-27
2022/07/20 03:52:04;;;;;;;22.08;4.80;;;;;;;19.66;56.49;100619.50;5027036;28;20478;-29
2022/07/20 03:54:30;;;;;;;16.48;4.82;;;;;;;19.63;55.67;100620.03;5025500;28;20030;-30
2022/07/20 03:56:55;;;;;;;16.35;4.10;;;;;;;20.23;54.10;100623.16;5027330;28;20041;-31
2022/07/20 03:59:21;;;;;;;10.20;3.20;;;;;;;19.60;55.77;100620.56;5027125;28;20117;-30
2022/07/20 04:01:46;;;;;;;7.47;3.72;;;;;;;19.28;56.81;100628.81;5027014;28;20787;-27
2022/07/20 04:04:11;;;;;;;5.85;3.58;;;;;;;18.73;57.82;100609.25;5027210;28;20038;-31
2022/07/20 04:06:37;;;;;;;6.65;3.40;;;;;;;18.62;59.06;100599.47;5025642;28;20036;-27
2022/07/20 04:09:03;;;;;;;8.50;4.18;;;;;;;18.78;58.49;100611.22;5026677;28;20540;-30
2022/07/20 04:11:28;;;;;;;7.63;3.65;;;;;;;18.87;58.50;100607.75;5027226;28;20025;-28
2022/07/20 04:13:54;;;;;;;14.65;4.20;;;;;;;18.72;59.33;100623.88;5026901;28;20116;-27
2022/07/20 04:16:20;;;;;;;7.70;4.07;;;;;;;18.76;59.50;100611.47;5026654;28;20068;-28
2022/07/20 04:18:45;;;;;;;8.57;4.65;;;;;;;18.58;60.48;100626.19;5027058;28;20033;-27
2022/07/20 04:21:11;;;;;;;8.85;3.92;;;;;;;18.61;60.64;100625.69;5025504;28;20390;-27
2022/07/20 04:23:36;;;;;;;10.93;3.75;;;;;;;18.59;61.04;100630.53;5028805;28;20034;-29
2022/07/20 04:26:02;;;;;;;18.52;4.60;;;;;;;18.68;61.08;100631.66;5031023;28;20175;-27
2022/07/20 04:28:28;;;;;;;15.55;4.78;;;;;;;18.98;60.16;100634.84;5031110;28;20082;-27
2022/07/20 04:30:53;;;;;;;6.25;4.07;;;;;;;18.44;62.18;100625.81;5030943;28;20462;-32
2022/07/20 04:33:19;;;;;;;6.88;4.07;;;;;;;18.12;63.75;100606.06;5029439;28;20037;-29
2022/07/20 04:35:45;;;;;;;8.40;4.28;;;;;;;18.27;63.74;100627.81;5030441;28;20040;-27
2022/07/20 04:38:13;;;;;;;9.05;5.00;;;;;;;18.44;63.24;100631.19;5028931;28;20067;-28
2022/07/20 04:40:40;;;;;;;6.93;4.03;;;;;;;18.70;61.60;100617.91;5030622;28;20405;-27
2022/07/20 04:43:06;;;;;;;7.90;4.25;;;;;;;18.53;62.02;100634.25;5029114;28;20025;-28
2022/07/20 04:45:31;;;;;;;8.15;4.30;;;;;;;18.67;62.26;100640.03;5029225;28;20037;-31
2022/07/20 04:47:57;;;;;;;7.50;4.43;;;;;;;18.48;62.47;100616.09;5030055;28;20029;-27
2022/07/20 04:50:22;;;;;;;7.05;4.22;;;;;;;18.58;62.37;100619.97;5030462;28;20033;-28
2022/07/20 04:52:48;;;;;;;8.35;4.10;;;;;;;18.92;62.11;100635.91;5030121;28;20039;-26
2022/07/20 04:55:13;;;;;;;7.30;4.25;;;;;;;18.77;62.28;100614.97;5030506;28;20048;-30
2022/07/20 04:57:39;;;;;;;8.27;4.13;;;;;;;18.65;62.54;100615.16;5030500;28;20037;-29
2022/07/20 05:00:05;;;;;;;10.95;4.30;;;;;;;18.71;62.42;100622.22;5028500;28;20030;-29
2022/07/20 05:02:31;;;;;;;8.27;4.47;;;;;;;19.02;61.03;100614.34;5028911;28;20112;-27
2022/07/20 05:04:56;;;;;;;9.40;3.97;;;;;;;19.20;61.80;100632.00;5030109;28;20108;-28
2022/07/20 05:07:22;;;;;;;16.48;5.85;;;;;;;19.20;62.10;100627.41;5028438;28;20128;-30
2022/07/20 05:09:47;;;;;;;7.18;4.18;;;;;;;19.05;62.82;100624.66;5029857;28;20037;-30
2022/07/20 05:12:13;;;;;;;7.47;4.10;;;;;;;19.18;61.30;100623.34;5030210;28;20474;-28
2022/07/20 05:14:39;;;;;;;7.05;3.70;;;;;;;19.64;60.20;100610.84;5029680;28;20040;-32
2022/07/20 05:17:04;;;;;;;5.78;4.28;;;;;;;20.10;59.28;100639.13;5030159;28;20468;-28
2022/07/20 05:19:30;;;;;;;5.97;3.50;;;;;;;20.03;59.59;100623.94;5029887;28;20029;-27
2022/07/20 05:21:56;;;;;;;6.03;3.55;;;;;;;20.33;58.21;100638.63;5029609;28;20503;-29
2022/07/20 05:24:22;;;;;;;5.38;3.40;;;;;;;20.37;57.51;100631.59;5028500;28;20030;-26
2022/07/20 05:26:47;;;;;;;5.15;3.15;;;;;;;20.63;57.40;100647.84;5028151;28;20131;-32
2022/07/20 05:29:13;;;;;;;8.00;3.25;;;;;;;20.71;56.63;100628.34;5029669;28;20540;-27
2022/07/20 05:31:38;;;;;;;10.65;3.30;;;;;;;21.01;55.88;100654.59;5028089;28;20680;-28
2022/07/20 05:34:04;;;;;;;8.35;2.80;;;;;;;21.11;56.11;100642.91;5027440;28;20041;-28
2022/07/20 05:36:29;;;;;;;6.70;3.00;;;;;;;21.24;55.33;100653.16;5028521;28;20033;-28
2022/07/20 05:38:55;;;;;;;6.40;2.47;;;;;;;21.10;54.44;100630.44;5028140;28;20026;-32
2022/07/20 05:41:20;;;;;;;7.28;2.40;;;;;;;21.09;54.25;100657.84;5029883;28;20093;-27
2022/07/20 05:43:46;;;;;;;9.80;2.92;;;;;;;20.83;54.78;100626.16;5027707;28;20444;-29
2022/07/20 05:46:11;;;;;;;8.63;2.80;;;;;;;20.81;55.45;100639.16;5029476;28;20025;-31
2022/07/20 05:48:37;;;;;;;7.30;2.60;;;;;;;21.06;55.37;100648.34;5029223;28;20052;-28
2022/07/20 05:51:02;;;;;;;5.35;2.83;;;;;;;21.24;54.07;100636.91;5029131;28;20041;-28
2022/07/20 05:53:28;;;;;;;4.95;2.55;;;;;;;21.24;52.03;100627.97;5027883;28;20116;-32
2022/07/20 05:55:53;;;;;;;5.53;2.60;;;;;;;21.40;53.51;100643.09;5029058;28;20029;-28
2022/07/20 05:58:19;;;;;;;7.53;4.13;;;;;;;21.71;52.30;100661.19;5027782;28;20434;-30
2022/07/20 06:00:44;;;;;;;5.07;3.53;;;;;;;21.82;52.65;100657.31;5029117;28;20537;-29
2022/07/20 06:03:10;;;;;;;4.50;3.22;;;;;;;21.92;51.90;100656.44;5029183;28;20025;-27
2022/07/20 06:05:35;;;;;;;9.80;6.28;;;;;;;22.16;51.67;100656.59;5028434;28;20693;-32
2022/07/20 06:08:03;;;;;;;5.28;3.35;;;;;;;22.35;50.89;100663.00;5028900;28;20040;-27
2022/07/20 06:10:30;;;;;;;8.88;4.38;;;;;;;22.31;50.56;100632.03;5028853;28;20025;-33
2022/07/20 06:12:56;;;;;;;11.25;4.40;;;;;;;22.42;50.96;100652.63;5026384;28;20056;-29
2022/07/20 06:15:24;;;;;;;4.57;2.65;;;;;;;22.25;49.27;100638.59;5028522;28;20038;-28
2022/07/20 06:17:51;;;;;;;3.55;2.47;;;;;;;22.41;49.03;100659.16;5026463;28;20040;-32
2022/07/20 06:20:16;;;;;;;6.57;2.70;;;;;;;22.46;49.43;100645.50;5026261;28;20110;-31
2022/07/20 06:22:44;;;;;;;6.97;3.20;;;;;;;22.59;48.44;100648.69;5028293;28;20417;-30
2022/07/20 06:25:11;;;;;;;5.95;3.03;;;;;;;22.66;48.08;100660.03;5026630;28;20029;-28
2022/07/20 06:27:37;;;;;;;;;;;;;;;22.89;47.73;100653.03;5028285;28;20036;-34
2022/07/20 06:30:04;;;;;;;8.73;4.40;;;;;;;22.97;49.14;100657.03;5027867;28;20359;-27
2022/07/20 06:32:30;;;;;;;5.25;3.47;;;;;;;23.18;47.98;100663.91;5026535;28;20071;-28
2022/07/20 06:34:55;;;;;;;7.25;2.85;;;;;;;23.36;47.07;100665.06;5028438;28;20037;-28
2022/07/20 06:37:21;;;;;;;7.82;3.85;;;;;;;23.44;47.73;100656.25;5026656;28;20040;-27
2022/07/20 06:39:46;;;;;;;6.32;3.75;;;;;;;23.70;47.23;100644.22;5027927;28;20025;-27
2022/07/20 06:42:12;;;;;;;4.60;2.60;;;;;;;23.61;45.91;100631.28;5028032;28;20041;-27
2022/07/20 06:44:37;;;;;;;5.50;2.70;;;;;;;23.58;46.34;100650.94;5028332;28;20022;-29
2022/07/20 06:47:04;;;;;;;4.55;2.70;;;;;;;23.52;46.80;100632.22;5027837;28;20029;-33
2022/07/20 06:49:29;;;;;;;6.85;3.00;;;;;;;23.70;46.19;100636.06;5027715;28;20029;-33
2022/07/20 06:51:55;;;;;;;9.50;3.22;;;;;;;24.06;45.55;100656.28;5026318;28;20029;-27
2022/07/20 06:54:22;;;;;;;5.13;2.95;;;;;;;23.88;45.94;100634.50;5026372;28;20505;-30
2022/07/20 06:56:47;;;;;;;5.20;2.25;;;;;;;23.96;45.13;100650.97;5026440;28;20120;-32
2022/07/20 06:59:13;;;;;;;5.38;2.35;;;;;;;24.02;44.83;100636.19;5027376;28;20179;-28
2022/07/20 07:01:38;;;;;;;5.82;3.25;;;;;;;24.29;45.11;100623.78;5027907;28;20029;-28
2022/07/20 07:04:04;;;;;;;8.20;5.78;;;;;;;24.62;44.72;100626.53;5025635;28;20191;-31
2022/07/20 07:06:30;;;;;;;5.28;2.85;;;;;;;24.32;44.06;100631.38;5026468;28;20033;-31
2022/07/20 07:08:57;;;;;;;5.63;2.53;;;;;;;24.57;44.12;100632.09;5027909;28;20726;-28
2022/07/20 07:11:23;;;;;;;5.83;2.77;;;;;;;24.59;44.09;100608.84;5026101;28;20477;-30
2022/07/20 07:13:48;;;;;;;4.35;2.55;;;;;;;25.04;42.55;100639.13;5027258;28;20028;-27
2022/07/20 07:16:14;;;;;;;3.60;2.33;;;;;;;25.09;42.20;100635.50;5027606;28;20057;-28
2022/07/20 07:18:39;;;;;;;5.32;2.53;;;;;;;24.99;42.08;100630.25;5027207;28;20026;-28
2022/07/20 07:21:05;;;;;;;6.32;2.35;;;;;;;24.85;42.36;100631.03;5027718;28;20033;-32
2022/07/20 07:23:30;;;;;;;5.32;2.55;;;;;;;25.14;41.87;100629.94;5025965;28;20045;-30
2022/07/20 07:25:56;;;;;;;5.38;2.20;;;;;;;25.32;41.72;100616.53;5025790;28;20057;-30
2022/07/20 07:28:22;;;;;;;4.30;2.08;;;;;;;25.54;42.45;100618.50;5026807;28;20036;-30
2022/07/20 07:30:50;;;;;;;4.25;1.90;;;;;;;25.69;41.37;100617.38;5027393;28;20037;-32
2022/07/20 07:33:16;;;;;;;4.90;2.22;;;;;;;25.86;40.66;100636.66;5026830;28;20029;-33
2022/07/20 07:35:41;;;;;;;3.28;2.30;;;;;;;25.85;40.51;100635.06;5025970;28;20460;-28
2022/07/20 07:38:07;;;;;;;2.95;1.73;;;;;;;25.90;41.51;100631.41;5027020;28;20034;-29
2022/07/20 07:40:32;;;;;;;4.40;1.90;;;;;;;25.81;40.69;100617.66;5025633;28;20048;-30
2022/07/20 07:42:58;;;;;;;4.32;1.90;;;;;;;26.15;41.09;100630.00;5026973;28;20029;-28
2022/07/20 07:45:23;;;;;;;4.43;1.90;;;;;;;26.44;39.46;100615.91;5027168;28;20018;-30
2022/07/20 07:47:49;;;;;;;6.00;2.17;;;;;;;26.61;40.32;100616.03;5026558;28;20029;-27
2022/07/20 07:50:14;;;;;;;5.82;1.70;;;;;;;26.70;39.35;100621.53;5027608;28;20083;-28
2022/07/20 07:52:40;;;;;;;4.53;1.90;;;;;;;26.90;39.45;100608.44;5027231;28;20026;-29
2022/07/20 07:55:05;;;;;;;3.15;1.92;;;;;;;26.77;39.20;100612.91;5026912;28;20033;-29
2022/07/20 07:57:31;;;;;;;4.53;1.95;;;;;;;26.78;38.21;100618.03;5025758;28;20087;-30
2022/07/20 07:59:56;;;;;;;3.17;1.80;;;;;;;26.81;39.13;100594.75;5030776;28;20115;-28
2022/07/20 08:02:22;;;;;;;6.28;1.80;;;;;;;27.06;37.98;100612.38;5031240;28;20037;-28
2022/07/20 08:04:48;;;;;;;4.10;1.70;;;;;;;27.00;39.06;100602.69;5031142;28;20031;-31
2022/07/20 08:07:13;;;;;;;4.20;2.90;;;;;;;27.02;38.35;100606.72;5029762;28;20026;-30
2022/07/20 08:09:39;;;;;;;7.03;3.20;;;;;;;27.18;38.07;100607.09;5031079;28;20069;-29
2022/07/20 08:12:05;;;;;;;3.03;1.63;;;;;;;27.33;36.49;100605.06;5030748;28;20033;-28
2022/07/20 08:14:30;;;;;;;4.32;1.80;;;;;;;27.49;35.93;100591.75;5030777;28;20104;-29
2022/07/20 08:16:56;;;;;;;4.07;1.92;;;;;;;27.64;36.10;100605.78;5028847;28;20096;-28
2022/07/20 08:19:22;;;;;;;3.10;1.50;;;;;;;27.83;34.30;100596.44;5030360;28;20060;-32
2022/07/20 08:21:47;;;;;;;2.28;1.50;;;;;;;28.13;33.15;100585.63;5030545;28;20040;-29
2022/07/20 08:24:14;;;;;;;5.60;1.73;;;;;;;28.17;34.57;100592.09;5029918;28;20033;-34
2022/07/20 08:26:40;;;;;;;3.35;1.70;;;;;;;28.12;33.60;100586.78;5030309;28;20421;-27
2022/07/20 08:29:05;;;;;;;4.25;1.80;;;;;;;28.30;32.51;100596.59;5029200;28;20037;-31
2022/07/20 08:31:31;;;;;;;4.07;1.65;;;;;;;28.52;33.19;100587.34;5030206;28;20116;-27
2022/07/20 08:33:57;;;;;;;5.88;1.52;;;;;;;28.36;31.87;100589.81;5030681;28;20037;-34
2022/07/20 08:36:22;;;;;;;7.10;2.05;;;;;;;28.44;32.09;100586.25;5030535;28;20029;-32
2022/07/20 08:38:48;;;;;;;3.47;1.90;;;;;;;28.32;31.51;100579.78;5030224;28;20109;-32
2022/07/20 08:41:15;;;;;;;2.80;1.38;;;;;;;28.42;31.68;100574.78;5030487;28;20038;-27
2022/07/20 08:43:40;;;;;;;3.30;1.60;;;;;;;28.83;31.38;100570.63;5028793;28;20033;-29
2022/07/20 08:46:06;;;;;;;2.75;1.60;;;;;;;29.20;30.74;100584.69;5030025;28;20029;-27
2022/07/20 08:48:34;;;;;;;7.28;2.42;;;;;;;29.45;31.17;100585.66;5028979;28;20474;-31
2022/07/20 08:51:00;;;;;;;2.78;1.40;;;;;;;29.82;31.00;100585.06;5030349;28;20516;-30
2022/07/20 08:53:26;;;;;;;3.15;1.33;;;;;;;29.92;29.26;100581.91;5030349;28;20104;-30
2022/07/20 08:55:51;;;;;;;3.22;1.40;;;;;;;30.01;30.14;100577.13;5030298;28;20025;-28
2022/07/20 08:58:17;;;;;;;3.40;1.30;;;;;;;30.08;29.33;100573.03;5036162;28;20091;-34
2022/07/20 09:00:42;;;;;;;2.80;1.40;;;;;;;30.10;29.94;100579.81;5048939;28;20033;-29
2022/07/20 09:03:09;;;;;;;2.47;1.45;;;;;;;30.03;28.48;100583.09;5050152;28;20467;-28
2022/07/20 09:05:37;;;;;;;7.63;1.45;;;;;;;30.07;28.64;100563.19;5048007;28;20397;-29
2022/07/20 09:08:05;;;;;;;4.10;1.70;;;;;;;30.54;27.70;100568.38;5047472;28;20037;-38
2022/07/20 09:10:36;;;;;;;3.47;1.55;;;;;;;30.46;28.93;100570.06;5029575;28;20052;-32
2022/07/20 09:13:08;;;;;;;4.45;1.40;;;;;;;30.50;27.58;100559.19;5027767;28;20135;-30
2022/07/20 09:15:40;;;;;;;2.88;1.50;;;;;;;30.33;29.11;100566.50;5029037;28;20053;-31
2022/07/20 09:18:10;;;;;;;3.08;1.42;;;;;;;30.40;29.27;100539.22;5028106;28;20528;-31
2022/07/20 09:20:38;;;;;;;4.50;1.50;;;;;;;30.59;28.10;100537.88;5027599;28;20041;-33
2022/07/20 09:23:10;;;;;;;4.78;1.50;;;;;;;30.75;28.96;100555.31;5027908;28;20397;-30
2022/07/20 09:25:36;;;;;;;3.30;1.70;;;;;;;30.27;29.96;100553.28;5027335;28;20044;-30
2022/07/20 09:28:02;;;;;;;3.00;1.50;;;;;;;30.65;28.57;100536.50;5027865;28;20033;-30
2022/07/20 09:30:28;;;;;;;2.95;1.60;;;;;;;30.81;29.20;100547.63;5029024;28;20117;-37
2022/07/20 09:32:58;;;;;;;2.20;1.35;;;;;;;31.11;28.14;100545.44;5029182;28;20120;-29
2022/07/20 09:35:28;;;;;;;3.70;1.50;;;;;;;31.14;28.43;100544.78;5029010;28;20033;-28
2022/07/20 09:37:56;;;;;;;3.17;1.40;;;;;;;31.17;27.55;100538.56;5027532;28;20063;-28
2022/07/20 09:40:21;;;;;;;;;;;;;;;31.50;25.95;100534.81;5027661;28;20033;-28
2022/07/20 09:42:47;;;;;;;4.22;1.67;;;;;;;31.37;27.87;100517.50;5029344;28;19924;-29
2022/07/20 09:45:27;;;;;;;3.33;1.50;;;;;;;31.65;27.57;100508.50;5029070;28;20021;-31
2022/07/20 09:48:22;;;;;;;3.28;1.55;;;;;;;31.89;27.46;100526.84;5027375;28;20482;-31
2022/07/20 09:50:47;;;;;;;2.53;1.50;;;;;;;31.86;27.22;100519.31;5026144;28;20144;-36
2022/07/20 09:53:14;;;;;;;2.85;1.30;;;;;;;31.65;27.63;100511.25;5028851;28;20033;-32
2022/07/20 09:55:41;;;;;;;2.67;1.30;;;;;;;31.74;29.42;100517.41;5028203;28;20037;-37
2022/07/20 09:58:07;;;;;;;4.57;1.80;;;;;;;31.74;27.74;100513.84;5032766;28;20493;-29
2022/07/20 10:00:34;;;;;;;2.60;1.40;;;;;;;31.24;29.37;100518.66;5047111;28;20025;-30
2022/07/20 10:03:01;;;;;;;;;;;;;;;31.35;28.94;100514.28;5047724;28;20067;-32
2022/07/20 10:05:32;;;;;;;3.05;1.40;;;;;;;31.28;27.81;100507.75;5048659;28;19912;-29
2022/07/20 10:08:04;;;;;;;6.07;1.77;;;;;;;31.33;29.38;100507.53;5047078;28;20057;-29
2022/07/20 10:10:30;;;;;;;4.13;1.65;;;;;;;31.34;27.73;100503.63;5046949;28;20060;-29
2022/07/20 10:12:57;;;;;;;2.63;1.30;;;;;;;31.53;27.80;100501.06;5046726;28;20064;-28
2022/07/20 10:15:25;;;;;;;;;;;;;;;31.53;27.40;100501.06;5046758;28;20106;-30
2022/07/20 10:17:51;;;;;;;2.67;1.50;;;;;;;31.69;28.81;100492.84;5047858;28;19960;-29
2022/07/20 10:20:29;;;;;;;4.18;1.60;;;;;;;31.54;27.92;100488.88;5046674;28;20031;-29
2022/07/20 10:23:31;;;;;;;4.85;1.70;;;;;;;31.69;27.15;100497.53;5047989;28;20124;-29
2022/07/20 10:25:58;;;;;;;3.67;1.70;;;;;;;31.43;27.75;100460.19;5028149;28;20401;-32
2022/07/20 10:28:36;;;;;;;5.65;1.42;;;;;;;31.56;28.71;100478.28;5042507;28;20036;-31
2022/07/20 10:31:10;;;;;;;4.53;1.77;;;;;;;32.04;27.51;100470.16;5026866;28;20037;-31
2022/07/20 10:33:38;;;;;;;2.78;1.45;;;;;;;32.15;26.61;100459.41;5025732;28;20079;-32
2022/07/20 10:39:38;;;;;;;5.40;1.48;;;;;;;32.42;26.77;100477.00;5027853;28;20413;-28
2022/07/20 10:42:40;;;;;;;4.80;1.50;;;;;;;32.53;27.36;100463.44;5027764;28;20025;-30
2022/07/20 10:45:19;;;;;;;2.30;1.58;;;;;;;32.38;25.42;100452.06;5027841;28;20145;-31
2022/07/20 10:48:11;;;;;;;4.88;1.50;;;;;;;33.13;25.06;100464.06;5026583;28;20057;-28
2022/07/20 10:50:38;;;;;;;2.60;1.77;;;;;;;33.58;25.12;100457.06;5027648;28;20045;-29
2022/07/20 10:53:10;;;;;;;2.88;1.27;;;;;;;33.91;25.46;100455.72;5025860;28;20022;-33
2022/07/20 10:55:35;;;;;;;3.15;1.50;;;;;;;33.57;23.28;100446.38;5027421;28;20029;-29
2022/07/20 10:58:15;;;;;;;3.33;1.70;;;;;;;33.90;24.19;100458.88;5027605;28;20405;-30
2022/07/20 11:00:44;;;;;;;2.88;1.45;;;;;;;33.68;25.07;100438.34;5026042;28;20043;-30
2022/07/20 11:03:21;;;;;;;4.82;1.65;;;;;;;33.93;24.74;100439.56;5027007;28;20060;-27
2022/07/20 11:05:57;;;;;;;5.70;1.70;;;;;;;33.88;25.46;100431.59;5025799;28;20037;-28
2022/07/20 11:08:23;;;;;;;3.22;1.38;;;;;;;33.42;26.21;100424.00;5026032;28;20755;-30
2022/07/20 11:10:48;;;;;;;5.97;1.70;;;;;;;33.26;25.63;100430.78;5027406;28;20029;-30
2022/07/20 11:13:15;;;;;;;4.53;1.95;;;;;;;33.03;26.17;100431.47;5026650;28;20021;-28
2022/07/20 11:15:47;;;;;;;5.60;1.58;;;;;;;33.59;26.07;100439.34;5033508;28;20136;-30
2022/07/20 11:18:18;;;;;;;2.38;1.60;;;;;;;33.19;24.87;100423.94;5046520;28;20040;-31
2022/07/20 11:20:53;;;;;;;13.88;1.95;;;;;;;32.73;25.57;100418.19;5047139;28;20079;-28
2022/07/20 11:23:21;;;;;;;7.43;1.80;;;;;;;32.80;25.22;100409.28;5046569;28;20032;-30
2022/07/20 11:25:53;;;;;;;6.07;1.40;;;;;;;32.99;26.69;100408.50;5045318;28;20107;-28
2022/07/20 11:28:24;;;;;;;4.85;1.60;;;;;;;33.65;25.23;100419.69;5046839;28;20091;-32